sensor_id;sensor_type;location;lat;lon;timestamp;temperature;humidity
59208;DHT22;44977;53.132;6.408;2023-05-10T00:00:57;13.30;99.90
59208;DHT22;44977;53.132;6.408;2023-05-10T00:05:58;13.30;99.90
59208;DHT22;44977;53.132;6.408;2023-05-10T00:10:58;13.30;99.90
59208;DHT22;44977;53.132;6.408;2023-05-10T00:15:59;13.20;99.90
59208;DHT22;44977;53.132;6.408;2023-05-10T00:21:00;13.20;99.90
59208;DHT22;44977;53.132;6.408;2023-05-10T00:26:00;13.20;99.90
59208;DHT22;44977;53.132;6.408;2023-05-10T00:31:01;13.10;99.90
59208;DHT22;44977;53.132;6.408;2023-05-10T00:36:02;13.10;99.90
59208;DHT22;44977;53.132;6.408;2023-05-10T00:41:03;13.10;99.90
59208;DHT22;44977;53.132;6.408;2023-05-10T00:46:04;13.10;99.90
59208;DHT22;44977;53.132;6.408;2023-05-10T00:51:05;13.00;99.90
59208;DHT22;44977;53.132;6.408;2023-05-10T00:56:06;13.00;99.90
59208;DHT22;44977;53.132;6.408;2023-05-10T01:01:08;12.90;99.90
59208;DHT22;44977;53.132;6.408;2023-05-10T01:06:10;12.90;99.90
59208;DHT22;44977;53.132;6.408;2023-05-10T01:11:11;12.90;99.90
59208;DHT22;44977;53.132;6.408;2023-05-10T01:16:12;12.90;99.90
59208;DHT22;44977;53.132;6.408;2023-05-10T01:21:39;12.90;99.90
59208;DHT22;44977;53.132;6.408;2023-05-10T01:37:24;12.90;99.90
59208;DHT22;44977;53.132;6.408;2023-05-10T01:42:28;12.90;99.90
59208;DHT22;44977;53.132;6.408;2023-05-10T01:47:40;12.80;99.90
59208;DHT22;44977;53.132;6.408;2023-05-10T01:52:43;12.80;99.90
59208;DHT22;44977;53.132;6.408;2023-05-10T01:57:46;12.80;99.90
59208;DHT22;44977;53.132;6.408;2023-05-10T02:02:49;12.70;99.90
59208;DHT22;44977;53.132;6.408;2023-05-10T02:07:51;12.70;99.90
59208;DHT22;44977;53.132;6.408;2023-05-10T02:12:53;12.70;99.90
59208;DHT22;44977;53.132;6.408;2023-05-10T02:17:56;12.70;99.90
59208;DHT22;44977;53.132;6.408;2023-05-10T02:23:01;12.60;99.90
59208;DHT22;44977;53.132;6.408;2023-05-10T02:28:05;12.70;99.90
59208;DHT22;44977;53.132;6.408;2023-05-10T02:33:07;12.60;99.90
59208;DHT22;44977;53.132;6.408;2023-05-10T02:38:09;12.70;99.90
59208;DHT22;44977;53.132;6.408;2023-05-10T02:43:13;12.70;99.90
59208;DHT22;44977;53.132;6.408;2023-05-10T02:48:15;12.60;99.90
59208;DHT22;44977;53.132;6.408;2023-05-10T02:53:20;12.60;99.90
59208;DHT22;44977;53.132;6.408;2023-05-10T02:58:22;12.60;99.90
59208;DHT22;44977;53.132;6.408;2023-05-10T03:03:23;12.60;99.90
59208;DHT22;44977;53.132;6.408;2023-05-10T03:08:24;12.60;99.90
59208;DHT22;44977;53.132;6.408;2023-05-10T03:13:32;12.60;99.90
59208;DHT22;44977;53.132;6.408;2023-05-10T03:19:05;12.60;99.90
59208;DHT22;44977;53.132;6.408;2023-05-10T03:24:08;12.60;99.90
59208;DHT22;44977;53.132;6.408;2023-05-10T03:29:10;12.60;99.90
59208;DHT22;44977;53.132;6.408;2023-05-10T03:34:11;12.50;99.90
59208;DHT22;44977;53.132;6.408;2023-05-10T03:39:13;12.60;99.90
59208;DHT22;44977;53.132;6.408;2023-05-10T03:44:14;12.50;99.90
59208;DHT22;44977;53.132;6.408;2023-05-10T03:49:15;12.50;99.90
59208;DHT22;44977;53.132;6.408;2023-05-10T03:54:15;12.50;99.90
59208;DHT22;44977;53.132;6.408;2023-05-10T03:59:16;12.50;99.90
59208;DHT22;44977;53.132;6.408;2023-05-10T04:04:16;12.50;99.90
59208;DHT22;44977;53.132;6.408;2023-05-10T04:09:18;12.50;99.90
59208;DHT22;44977;53.132;6.408;2023-05-10T04:14:19;12.50;99.90
59208;DHT22;44977;53.132;6.408;2023-05-10T04:19:20;12.50;99.90
59208;DHT22;44977;53.132;6.408;2023-05-10T04:24:20;12.50;99.90
59208;DHT22;44977;53.132;6.408;2023-05-10T04:29:21;12.50;99.90
59208;DHT22;44977;53.132;6.408;2023-05-10T04:34:22;12.40;99.90
59208;DHT22;44977;53.132;6.408;2023-05-10T04:39:22;12.40;99.90
59208;DHT22;44977;53.132;6.408;2023-05-10T04:44:23;12.50;99.90
59208;DHT22;44977;53.132;6.408;2023-05-10T04:49:24;12.50;99.90
59208;DHT22;44977;53.132;6.408;2023-05-10T04:54:24;12.40;99.90
59208;DHT22;44977;53.132;6.408;2023-05-10T04:59:25;12.40;99.90
59208;DHT22;44977;53.132;6.408;2023-05-10T05:04:26;12.40;99.90
59208;DHT22;44977;53.132;6.408;2023-05-10T05:09:27;12.30;99.90
59208;DHT22;44977;53.132;6.408;2023-05-10T05:14:28;12.30;99.90
59208;DHT22;44977;53.132;6.408;2023-05-10T05:19:31;12.30;99.90
59208;DHT22;44977;53.132;6.408;2023-05-10T05:24:35;12.30;99.90
59208;DHT22;44977;53.132;6.408;2023-05-10T05:29:36;12.30;99.90
59208;DHT22;44977;53.132;6.408;2023-05-10T05:34:37;12.30;99.90
59208;DHT22;44977;53.132;6.408;2023-05-10T05:39:38;12.30;99.90
59208;DHT22;44977;53.132;6.408;2023-05-10T05:44:39;12.30;99.90
59208;DHT22;44977;53.132;6.408;2023-05-10T05:49:40;12.30;99.90
59208;DHT22;44977;53.132;6.408;2023-05-10T05:54:40;12.40;99.90
59208;DHT22;44977;53.132;6.408;2023-05-10T05:59:41;12.40;99.90
59208;DHT22;44977;53.132;6.408;2023-05-10T06:04:44;12.40;99.90
59208;DHT22;44977;53.132;6.408;2023-05-10T06:09:44;12.30;99.90
59208;DHT22;44977;53.132;6.408;2023-05-10T06:14:45;12.30;99.90
59208;DHT22;44977;53.132;6.408;2023-05-10T06:19:46;12.30;99.90
59208;DHT22;44977;53.132;6.408;2023-05-10T06:24:46;12.30;99.90
59208;DHT22;44977;53.132;6.408;2023-05-10T06:29:47;12.30;99.90
59208;DHT22;44977;53.132;6.408;2023-05-10T06:34:48;12.30;99.90
59208;DHT22;44977;53.132;6.408;2023-05-10T06:39:49;12.30;99.90
59208;DHT22;44977;53.132;6.408;2023-05-10T06:44:49;12.30;99.90
59208;DHT22;44977;53.132;6.408;2023-05-10T06:49:50;12.30;99.90
59208;DHT22;44977;53.132;6.408;2023-05-10T06:54:50;12.30;99.90
59208;DHT22;44977;53.132;6.408;2023-05-10T06:59:51;12.40;99.90
59208;DHT22;44977;53.132;6.408;2023-05-10T07:04:52;12.40;99.90
59208;DHT22;44977;53.132;6.408;2023-05-10T07:09:53;12.40;99.90
59208;DHT22;44977;53.132;6.408;2023-05-10T07:14:54;12.50;99.90
59208;DHT22;44977;53.132;6.408;2023-05-10T07:19:54;12.50;99.90
59208;DHT22;44977;53.132;6.408;2023-05-10T07:24:55;12.50;99.90
59208;DHT22;44977;53.132;6.408;2023-05-10T07:29:56;12.60;99.90
59208;DHT22;44977;53.132;6.408;2023-05-10T07:34:57;12.60;99.90
59208;DHT22;44977;53.132;6.408;2023-05-10T07:39:57;12.60;99.90
59208;DHT22;44977;53.132;6.408;2023-05-10T07:44:58;12.60;99.90
59208;DHT22;44977;53.132;6.408;2023-05-10T07:49:58;12.60;99.90
59208;DHT22;44977;53.132;6.408;2023-05-10T07:54:59;12.60;99.90
59208;DHT22;44977;53.132;6.408;2023-05-10T08:00:00;12.70;99.90
59208;DHT22;44977;53.132;6.408;2023-05-10T08:05:01;12.60;99.90
59208;DHT22;44977;53.132;6.408;2023-05-10T08:10:02;12.70;99.90
59208;DHT22;44977;53.132;6.408;2023-05-10T08:15:04;12.70;99.90
59208;DHT22;44977;53.132;6.408;2023-05-10T08:20:05;12.70;99.90
59208;DHT22;44977;53.132;6.408;2023-05-10T08:25:06;12.80;99.90
59208;DHT22;44977;53.132;6.408;2023-05-10T08:30:07;12.80;99.90
59208;DHT22;44977;53.132;6.408;2023-05-10T08:35:08;12.80;99.90
59208;DHT22;44977;53.132;6.408;2023-05-10T08:40:11;12.90;99.90
59208;DHT22;44977;53.132;6.408;2023-05-10T08:45:12;12.90;99.90
59208;DHT22;44977;53.132;6.408;2023-05-10T08:50:15;12.90;99.90
59208;DHT22;44977;53.132;6.408;2023-05-10T08:55:18;13.00;99.90
59208;DHT22;44977;53.132;6.408;2023-05-10T09:00:19;13.00;99.90
59208;DHT22;44977;53.132;6.408;2023-05-10T09:05:20;13.10;99.90
59208;DHT22;44977;53.132;6.408;2023-05-10T09:10:21;13.10;99.90
59208;DHT22;44977;53.132;6.408;2023-05-10T09:15:23;13.20;99.90
59208;DHT22;44977;53.132;6.408;2023-05-10T09:20:24;13.20;99.90
59208;DHT22;44977;53.132;6.408;2023-05-10T09:25:25;13.20;99.90
59208;DHT22;44977;53.132;6.408;2023-05-10T09:30:27;13.30;99.90
59208;DHT22;44977;53.132;6.408;2023-05-10T09:35:30;13.50;99.90
59208;DHT22;44977;53.132;6.408;2023-05-10T09:40:31;13.60;99.90
59208;DHT22;44977;53.132;6.408;2023-05-10T09:45:33;13.60;99.90
59208;DHT22;44977;53.132;6.408;2023-05-10T09:50:34;13.60;99.90
59208;DHT22;44977;53.132;6.408;2023-05-10T09:55:42;13.70;99.90
59208;DHT22;44977;53.132;6.408;2023-05-10T10:00:47;13.70;99.90
59208;DHT22;44977;53.132;6.408;2023-05-10T10:05:51;13.70;99.90
59208;DHT22;44977;53.132;6.408;2023-05-10T10:10:53;13.80;99.90
59208;DHT22;44977;53.132;6.408;2023-05-10T10:15:54;13.80;99.90
59208;DHT22;44977;53.132;6.408;2023-05-10T10:20:56;13.90;99.90
59208;DHT22;44977;53.132;6.408;2023-05-10T10:25:57;13.90;99.90
59208;DHT22;44977;53.132;6.408;2023-05-10T10:31:02;13.90;99.90
59208;DHT22;44977;53.132;6.408;2023-05-10T10:36:13;14.00;99.90
59208;DHT22;44977;53.132;6.408;2023-05-10T10:41:36;14.10;99.90
59208;DHT22;44977;53.132;6.408;2023-05-10T10:52:13;14.30;99.90
59208;DHT22;44977;53.132;6.408;2023-05-10T10:57:14;14.30;99.90
59208;DHT22;44977;53.132;6.408;2023-05-10T11:02:42;14.30;99.90
59208;DHT22;44977;53.132;6.408;2023-05-10T11:07:55;14.20;99.90
59208;DHT22;44977;53.132;6.408;2023-05-10T11:13:02;14.20;99.90
59208;DHT22;44977;53.132;6.408;2023-05-10T11:18:24;14.20;99.90
59208;DHT22;44977;53.132;6.408;2023-05-10T11:23:32;14.30;99.90
59208;DHT22;44977;53.132;6.408;2023-05-10T11:28:48;14.20;99.90
59208;DHT22;44977;53.132;6.408;2023-05-10T11:33:56;14.30;99.90
59208;DHT22;44977;53.132;6.408;2023-05-10T11:38:57;14.30;99.90
59208;DHT22;44977;53.132;6.408;2023-05-10T11:43:58;14.30;99.90
59208;DHT22;44977;53.132;6.408;2023-05-10T11:49:02;14.40;99.90
59208;DHT22;44977;53.132;6.408;2023-05-10T11:54:09;14.40;99.90
59208;DHT22;44977;53.132;6.408;2023-05-10T11:59:10;14.40;99.90
59208;DHT22;44977;53.132;6.408;2023-05-10T12:04:10;14.50;99.90
59208;DHT22;44977;53.132;6.408;2023-05-10T12:09:11;14.50;99.90
59208;DHT22;44977;53.132;6.408;2023-05-10T12:14:12;14.60;99.90
59208;DHT22;44977;53.132;6.408;2023-05-10T12:19:18;14.70;99.90
59208;DHT22;44977;53.132;6.408;2023-05-10T12:24:19;14.70;99.90
59208;DHT22;44977;53.132;6.408;2023-05-10T12:29:21;14.70;99.90
59208;DHT22;44977;53.132;6.408;2023-05-10T12:34:34;14.70;99.90
59208;DHT22;44977;53.132;6.408;2023-05-10T12:39:43;14.70;99.90
59208;DHT22;44977;53.132;6.408;2023-05-10T12:44:45;14.80;99.90
59208;DHT22;44977;53.132;6.408;2023-05-10T12:49:45;14.80;99.90
59208;DHT22;44977;53.132;6.408;2023-05-10T12:54:46;14.90;99.90
59208;DHT22;44977;53.132;6.408;2023-05-10T12:59:47;14.90;99.90
59208;DHT22;44977;53.132;6.408;2023-05-10T13:04:48;15.00;99.90
59208;DHT22;44977;53.132;6.408;2023-05-10T13:09:48;15.10;99.90
59208;DHT22;44977;53.132;6.408;2023-05-10T13:14:49;15.20;99.90
59208;DHT22;44977;53.132;6.408;2023-05-10T13:19:50;15.30;99.90
59208;DHT22;44977;53.132;6.408;2023-05-10T13:24:51;15.30;99.90
59208;DHT22;44977;53.132;6.408;2023-05-10T13:29:51;15.30;99.90
59208;DHT22;44977;53.132;6.408;2023-05-10T13:34:52;15.30;99.90
59208;DHT22;44977;53.132;6.408;2023-05-10T13:39:53;15.40;99.90
59208;DHT22;44977;53.132;6.408;2023-05-10T13:44:53;15.40;99.90
59208;DHT22;44977;53.132;6.408;2023-05-10T13:49:54;15.50;99.90
59208;DHT22;44977;53.132;6.408;2023-05-10T13:54:55;15.50;99.90
59208;DHT22;44977;53.132;6.408;2023-05-10T13:59:56;15.70;99.90
59208;DHT22;44977;53.132;6.408;2023-05-10T14:04:57;15.80;99.90
59208;DHT22;44977;53.132;6.408;2023-05-10T14:09:58;15.80;99.90
59208;DHT22;44977;53.132;6.408;2023-05-10T14:14:59;15.90;99.90
59208;DHT22;44977;53.132;6.408;2023-05-10T14:19:59;15.90;99.90
59208;DHT22;44977;53.132;6.408;2023-05-10T14:25:00;15.80;99.90
59208;DHT22;44977;53.132;6.408;2023-05-10T14:30:01;15.80;99.90
59208;DHT22;44977;53.132;6.408;2023-05-10T14:35:02;15.80;99.90
59208;DHT22;44977;53.132;6.408;2023-05-10T14:40:03;15.80;99.90
59208;DHT22;44977;53.132;6.408;2023-05-10T14:45:05;15.80;99.90
59208;DHT22;44977;53.132;6.408;2023-05-10T14:50:06;15.80;99.90
59208;DHT22;44977;53.132;6.408;2023-05-10T14:55:07;15.70;99.90
59208;DHT22;44977;53.132;6.408;2023-05-10T15:00:09;15.70;99.90
59208;DHT22;44977;53.132;6.408;2023-05-10T15:05:10;15.70;99.90
59208;DHT22;44977;53.132;6.408;2023-05-10T15:10:10;15.80;99.90
59208;DHT22;44977;53.132;6.408;2023-05-10T15:15:11;15.80;99.90
59208;DHT22;44977;53.132;6.408;2023-05-10T15:20:12;15.70;99.90
59208;DHT22;44977;53.132;6.408;2023-05-10T15:25:13;15.70;99.90
59208;DHT22;44977;53.132;6.408;2023-05-10T15:30:14;15.70;99.90
59208;DHT22;44977;53.132;6.408;2023-05-10T15:35:15;15.60;99.90
59208;DHT22;44977;53.132;6.408;2023-05-10T15:40:17;15.60;99.90
59208;DHT22;44977;53.132;6.408;2023-05-10T15:45:18;15.60;99.90
59208;DHT22;44977;53.132;6.408;2023-05-10T15:50:19;15.50;99.90
59208;DHT22;44977;53.132;6.408;2023-05-10T15:55:19;15.60;99.90
59208;DHT22;44977;53.132;6.408;2023-05-10T16:00:20;15.50;99.90
59208;DHT22;44977;53.132;6.408;2023-05-10T16:05:21;15.50;99.90
59208;DHT22;44977;53.132;6.408;2023-05-10T16:10:22;15.40;99.90
59208;DHT22;44977;53.132;6.408;2023-05-10T16:15:23;15.40;99.90
59208;DHT22;44977;53.132;6.408;2023-05-10T16:20:23;15.40;99.90
59208;DHT22;44977;53.132;6.408;2023-05-10T16:25:24;15.30;99.90
59208;DHT22;44977;53.132;6.408;2023-05-10T16:30:26;15.30;99.90
59208;DHT22;44977;53.132;6.408;2023-05-10T16:35:28;15.30;99.90
59208;DHT22;44977;53.132;6.408;2023-05-10T16:40:29;15.30;99.90
59208;DHT22;44977;53.132;6.408;2023-05-10T16:45:31;15.30;99.90
59208;DHT22;44977;53.132;6.408;2023-05-10T16:50:32;15.30;99.90
59208;DHT22;44977;53.132;6.408;2023-05-10T16:55:32;15.30;99.90
59208;DHT22;44977;53.132;6.408;2023-05-10T17:00:33;15.30;99.90
59208;DHT22;44977;53.132;6.408;2023-05-10T17:05:34;15.30;99.90
59208;DHT22;44977;53.132;6.408;2023-05-10T17:10:38;15.30;99.90
59208;DHT22;44977;53.132;6.408;2023-05-10T17:15:39;15.20;99.90
59208;DHT22;44977;53.132;6.408;2023-05-10T17:20:42;15.10;99.90
59208;DHT22;44977;53.132;6.408;2023-05-10T17:25:44;15.00;99.90
59208;DHT22;44977;53.132;6.408;2023-05-10T17:30:45;15.00;99.90
59208;DHT22;44977;53.132;6.408;2023-05-10T17:35:45;14.90;99.90
59208;DHT22;44977;53.132;6.408;2023-05-10T17:40:46;14.90;99.90
59208;DHT22;44977;53.132;6.408;2023-05-10T17:45:48;14.80;99.90
59208;DHT22;44977;53.132;6.408;2023-05-10T17:50:50;14.80;99.90
59208;DHT22;44977;53.132;6.408;2023-05-10T17:55:50;14.80;99.90
59208;DHT22;44977;53.132;6.408;2023-05-10T18:00:52;14.70;99.90
59208;DHT22;44977;53.132;6.408;2023-05-10T18:05:52;14.70;99.90
59208;DHT22;44977;53.132;6.408;2023-05-10T18:10:54;14.70;99.90
59208;DHT22;44977;53.132;6.408;2023-05-10T18:15:55;14.60;99.90
59208;DHT22;44977;53.132;6.408;2023-05-10T18:20:59;14.60;99.90
59208;DHT22;44977;53.132;6.408;2023-05-10T18:26:00;14.50;99.90
59208;DHT22;44977;53.132;6.408;2023-05-10T18:31:01;14.50;99.90
59208;DHT22;44977;53.132;6.408;2023-05-10T18:36:02;14.50;99.90
59208;DHT22;44977;53.132;6.408;2023-05-10T18:41:04;14.50;99.90
59208;DHT22;44977;53.132;6.408;2023-05-10T18:46:05;14.50;99.90
59208;DHT22;44977;53.132;6.408;2023-05-10T18:51:06;14.40;99.90
59208;DHT22;44977;53.132;6.408;2023-05-10T18:56:07;14.40;99.90
59208;DHT22;44977;53.132;6.408;2023-05-10T19:01:08;14.30;99.90
59208;DHT22;44977;53.132;6.408;2023-05-10T19:06:08;14.30;99.90
59208;DHT22;44977;53.132;6.408;2023-05-10T19:11:09;14.20;99.90
59208;DHT22;44977;53.132;6.408;2023-05-10T19:16:12;14.10;99.90
59208;DHT22;44977;53.132;6.408;2023-05-10T19:21:13;14.00;99.90
59208;DHT22;44977;53.132;6.408;2023-05-10T19:26:13;14.00;99.90
59208;DHT22;44977;53.132;6.408;2023-05-10T19:31:14;13.90;99.90
59208;DHT22;44977;53.132;6.408;2023-05-10T19:36:15;13.80;99.90
59208;DHT22;44977;53.132;6.408;2023-05-10T19:41:15;13.70;99.90
59208;DHT22;44977;53.132;6.408;2023-05-10T19:46:16;13.60;99.90
59208;DHT22;44977;53.132;6.408;2023-05-10T19:51:17;13.50;99.90
59208;DHT22;44977;53.132;6.408;2023-05-10T19:56:17;13.50;99.90
59208;DHT22;44977;53.132;6.408;2023-05-10T20:01:18;13.40;99.90
59208;DHT22;44977;53.132;6.408;2023-05-10T20:06:19;13.40;99.90
59208;DHT22;44977;53.132;6.408;2023-05-10T20:11:20;13.30;99.90
59208;DHT22;44977;53.132;6.408;2023-05-10T20:16:21;13.20;99.90
59208;DHT22;44977;53.132;6.408;2023-05-10T20:21:21;13.10;99.90
59208;DHT22;44977;53.132;6.408;2023-05-10T20:26:23;13.10;99.90
59208;DHT22;44977;53.132;6.408;2023-05-10T20:31:24;13.00;99.90
59208;DHT22;44977;53.132;6.408;2023-05-10T20:36:24;13.00;99.90
59208;DHT22;44977;53.132;6.408;2023-05-10T20:41:26;12.90;99.90
59208;DHT22;44977;53.132;6.408;2023-05-10T20:46:26;12.80;99.90
59208;DHT22;44977;53.132;6.408;2023-05-10T20:51:27;12.80;99.90
59208;DHT22;44977;53.132;6.408;2023-05-10T20:56:30;12.70;99.90
59208;DHT22;44977;53.132;6.408;2023-05-10T21:01:30;12.70;99.90
59208;DHT22;44977;53.132;6.408;2023-05-10T21:06:31;12.70;99.90
59208;DHT22;44977;53.132;6.408;2023-05-10T21:11:33;12.60;99.90
59208;DHT22;44977;53.132;6.408;2023-05-10T21:16:35;12.60;99.90
59208;DHT22;44977;53.132;6.408;2023-05-10T21:21:35;12.50;99.90
59208;DHT22;44977;53.132;6.408;2023-05-10T21:26:36;12.50;99.90
59208;DHT22;44977;53.132;6.408;2023-05-10T21:31:37;12.50;99.90
59208;DHT22;44977;53.132;6.408;2023-05-10T21:36:38;12.50;99.90
59208;DHT22;44977;53.132;6.408;2023-05-10T21:41:39;12.40;99.90
59208;DHT22;44977;53.132;6.408;2023-05-10T21:46:40;12.30;99.90
59208;DHT22;44977;53.132;6.408;2023-05-10T21:51:40;12.20;99.90
59208;DHT22;44977;53.132;6.408;2023-05-10T21:56:41;12.20;99.90
59208;DHT22;44977;53.132;6.408;2023-05-10T22:01:42;12.20;99.90
59208;DHT22;44977;53.132;6.408;2023-05-10T22:06:43;12.10;99.90
59208;DHT22;44977;53.132;6.408;2023-05-10T22:11:44;12.10;99.90
59208;DHT22;44977;53.132;6.408;2023-05-10T22:16:45;12.00;99.90
59208;DHT22;44977;53.132;6.408;2023-05-10T22:21:45;12.00;99.90
59208;DHT22;44977;53.132;6.408;2023-05-10T22:26:46;12.00;99.90
59208;DHT22;44977;53.132;6.408;2023-05-10T22:31:47;12.00;99.90
59208;DHT22;44977;53.132;6.408;2023-05-10T22:36:48;11.90;99.90
59208;DHT22;44977;53.132;6.408;2023-05-10T22:41:49;11.90;99.90
59208;DHT22;44977;53.132;6.408;2023-05-10T22:46:50;11.90;99.90
59208;DHT22;44977;53.132;6.408;2023-05-10T22:51:51;11.80;99.90
59208;DHT22;44977;53.132;6.408;2023-05-10T22:56:52;11.80;99.90
59208;DHT22;44977;53.132;6.408;2023-05-10T23:01:53;11.70;99.90
59208;DHT22;44977;53.132;6.408;2023-05-10T23:06:54;11.70;99.90
59208;DHT22;44977;53.132;6.408;2023-05-10T23:11:54;11.70;99.90
59208;DHT22;44977;53.132;6.408;2023-05-10T23:16:55;11.70;99.90
59208;DHT22;44977;53.132;6.408;2023-05-10T23:21:56;11.70;99.90
59208;DHT22;44977;53.132;6.408;2023-05-10T23:26:56;11.60;99.90
59208;DHT22;44977;53.132;6.408;2023-05-10T23:31:57;11.60;99.90
59208;DHT22;44977;53.132;6.408;2023-05-10T23:36:58;11.60;99.90
59208;DHT22;44977;53.132;6.408;2023-05-10T23:41:58;11.60;99.90
59208;DHT22;44977;53.132;6.408;2023-05-10T23:46:59;11.60;99.90
59208;DHT22;44977;53.132;6.408;2023-05-10T23:52:00;11.60;99.90
59208;DHT22;44977;53.132;6.408;2023-05-10T23:57:01;11.60;99.90
